createdAt,value
2018-07-09T00:01:15.551Z,0.80
2018-07-09T00:03:44.892Z,0.70
2018-07-09T00:06:14.237Z,0.97
2018-07-09T00:08:43.555Z,1.03
2018-07-09T00:11:12.865Z,0.93
2018-07-09T00:13:42.179Z,0.87
2018-07-09T00:16:11.513Z,0.80
2018-07-09T00:18:40.901Z,1.00
2018-07-09T00:21:10.234Z,0.80
2018-07-09T00:23:39.619Z,0.90
2018-07-09T00:26:08.924Z,0.70
2018-07-09T00:28:38.455Z,0.70
2018-07-09T00:31:07.864Z,1.10
2018-07-09T00:33:37.224Z,1.30
2018-07-09T00:36:06.581Z,0.80
2018-07-09T00:38:35.920Z,1.00
2018-07-09T00:41:05.260Z,1.20
2018-07-09T00:43:34.578Z,0.90
2018-07-09T00:46:04.619Z,0.90
2018-07-09T00:48:34.091Z,1.10
2018-07-09T00:51:03.459Z,1.20
2018-07-09T00:53:32.809Z,0.90
2018-07-09T00:59:01.979Z,0.67
2018-07-09T01:01:31.317Z,1.20
2018-07-09T01:04:00.712Z,1.20
2018-07-09T01:06:30.031Z,1.27
2018-07-09T01:08:59.360Z,1.20
2018-07-09T01:11:43.591Z,1.17
2018-07-09T01:14:13.329Z,1.10
2018-07-09T01:16:42.840Z,1.07
2018-07-09T01:19:12.233Z,1.20
2018-07-09T01:21:41.608Z,1.37
2018-07-09T01:24:10.924Z,1.00
2018-07-09T01:26:40.273Z,1.40
2018-07-09T01:29:09.598Z,1.57
2018-07-09T01:31:38.911Z,0.83
2018-07-09T01:34:08.236Z,1.10
2018-07-09T01:36:37.578Z,0.90
2018-07-09T01:39:06.884Z,0.97
2018-07-09T01:41:36.209Z,0.97
2018-07-09T01:44:05.536Z,1.13
2018-07-09T01:46:34.864Z,1.10
2018-07-09T01:49:04.258Z,1.20
2018-07-09T01:51:33.631Z,1.00
2018-07-09T01:54:03.048Z,1.20
2018-07-09T01:56:32.368Z,0.67
2018-07-09T01:59:01.972Z,1.30
2018-07-09T02:01:31.275Z,1.10
2018-07-09T02:04:00.598Z,1.30
2018-07-09T02:06:29.944Z,1.12
2018-07-09T02:08:59.253Z,0.90
2018-07-09T02:11:28.576Z,1.10
2018-07-09T02:13:57.901Z,1.10
2018-07-09T02:16:27.211Z,1.10
2018-07-09T02:18:56.547Z,1.00
2018-07-09T02:21:26.088Z,1.00
2018-07-09T02:23:55.672Z,1.00
2018-07-09T02:26:25.411Z,1.03
2018-07-09T02:28:55.013Z,1.40
2018-07-09T02:31:24.356Z,1.50
2018-07-09T02:33:53.700Z,1.60
2018-07-09T02:36:23.035Z,1.80
2018-07-09T02:38:52.383Z,1.27
2018-07-09T02:41:21.762Z,1.20
2018-07-09T02:43:51.067Z,1.27
2018-07-09T02:46:20.424Z,1.20
2018-07-09T02:48:49.735Z,1.40
2018-07-09T02:51:20.037Z,1.22
2018-07-09T02:53:49.364Z,1.37
2018-07-09T02:56:18.836Z,1.00
2018-07-09T02:58:48.178Z,1.13
2018-07-09T03:01:17.491Z,1.20
2018-07-09T03:03:46.786Z,1.00
2018-07-09T03:06:16.132Z,1.20
2018-07-09T03:08:45.627Z,1.13
2018-07-09T03:11:14.975Z,1.47
2018-07-09T03:13:44.352Z,1.10
2018-07-09T03:16:13.657Z,1.23
2018-07-09T03:18:43.000Z,1.40
2018-07-09T03:21:12.319Z,1.00
2018-07-09T03:23:41.648Z,1.50
2018-07-09T03:26:10.998Z,1.10
2018-07-09T03:28:40.327Z,1.77
2018-07-09T03:31:09.668Z,1.50
2018-07-09T03:33:39.027Z,1.50
2018-07-09T03:36:08.406Z,1.37
2018-07-09T03:38:37.727Z,1.43
2018-07-09T03:41:07.060Z,1.43
2018-07-09T03:43:36.480Z,1.33
2018-07-09T03:46:05.882Z,1.50
2018-07-09T03:48:35.216Z,1.43
2018-07-09T03:51:04.605Z,1.60
2018-07-09T03:53:34.085Z,1.30
2018-07-09T03:56:04.324Z,1.10
2018-07-09T03:58:33.730Z,1.60
2018-07-09T04:01:03.053Z,1.57
2018-07-09T04:03:32.452Z,0.97
2018-07-09T04:06:01.776Z,1.60
2018-07-09T04:08:31.112Z,1.63
2018-07-09T04:11:00.416Z,1.30
2018-07-09T04:13:29.826Z,1.63
2018-07-09T04:15:59.154Z,1.40
2018-07-09T04:18:28.484Z,1.30
2018-07-09T04:20:57.864Z,1.70
2018-07-09T04:23:27.132Z,1.50
2018-07-09T04:25:56.464Z,1.20
2018-07-09T04:28:25.874Z,1.60
2018-07-09T04:30:55.187Z,2.00
2018-07-09T04:33:24.520Z,1.50
2018-07-09T04:35:53.984Z,1.67
2018-07-09T04:38:23.347Z,1.50
2018-07-09T04:40:52.688Z,1.30
2018-07-09T04:43:22.054Z,1.33
2018-07-09T04:45:51.363Z,1.67
2018-07-09T04:48:20.677Z,1.90
2018-07-09T04:50:50.001Z,1.83
2018-07-09T04:53:19.322Z,1.47
2018-07-09T04:55:48.656Z,1.40
2018-07-09T04:58:17.988Z,1.53
2018-07-09T05:00:47.312Z,1.47
2018-07-09T05:03:16.618Z,1.67
2018-07-09T05:05:45.733Z,1.40
2018-07-09T05:08:15.025Z,1.23
2018-07-09T05:10:44.432Z,1.60
2018-07-09T05:13:13.752Z,1.80
2018-07-09T05:15:43.070Z,1.20
2018-07-09T05:18:12.396Z,1.37
2018-07-09T05:20:41.755Z,1.40
2018-07-09T05:23:11.083Z,1.60
2018-07-09T05:25:40.396Z,1.43
2018-07-09T05:28:09.761Z,1.37
2018-07-09T05:30:39.162Z,1.70
2018-07-09T05:33:08.511Z,1.70
2018-07-09T05:35:37.824Z,1.43
2018-07-09T05:38:07.253Z,1.93
2018-07-09T05:40:36.750Z,1.50
2018-07-09T05:43:06.236Z,1.20
2018-07-09T05:45:35.601Z,1.10
2018-07-09T05:48:06.220Z,1.67
2018-07-09T05:50:35.543Z,1.50
2018-07-09T05:53:05.056Z,1.60
2018-07-09T05:55:34.392Z,1.53
2018-07-09T05:58:03.727Z,1.20
2018-07-09T06:00:33.180Z,1.63
2018-07-09T06:03:02.488Z,1.57
2018-07-09T06:05:31.866Z,2.00
2018-07-09T06:08:01.237Z,1.63
2018-07-09T06:10:30.592Z,1.63
2018-07-09T06:12:59.933Z,2.20
2018-07-09T06:15:29.288Z,2.03
2018-07-09T06:17:58.414Z,1.90
2018-07-09T06:20:27.755Z,1.73
2018-07-09T06:22:57.095Z,1.70
2018-07-09T06:25:26.426Z,2.23
2018-07-09T06:27:55.733Z,2.27
2018-07-09T06:30:25.052Z,1.90
2018-07-09T06:32:54.379Z,2.07
2018-07-09T06:35:23.684Z,2.50
2018-07-09T06:37:53.304Z,2.63
2018-07-09T06:40:22.624Z,3.17
2018-07-09T06:42:51.972Z,2.50
2018-07-09T06:45:21.324Z,2.47
2018-07-09T06:47:50.748Z,2.90
2018-07-09T06:50:20.155Z,2.40
2018-07-09T06:52:49.491Z,2.20
2018-07-09T06:55:18.806Z,2.83
2018-07-09T06:57:48.144Z,2.53
2018-07-09T07:00:17.463Z,2.20
2018-07-09T07:02:46.858Z,2.27
2018-07-09T07:05:16.212Z,2.30
2018-07-09T07:07:45.539Z,2.17
2018-07-09T07:10:14.864Z,2.10
2018-07-09T07:12:44.190Z,2.10
2018-07-09T07:15:13.588Z,2.10
2018-07-09T07:17:42.929Z,1.83
2018-07-09T07:20:16.036Z,2.03
2018-07-09T07:22:45.344Z,1.60
2018-07-09T07:25:14.851Z,1.43
2018-07-09T07:27:44.200Z,1.40
2018-07-09T07:30:13.532Z,1.57
2018-07-09T07:32:42.950Z,1.53
2018-07-09T07:35:11.983Z,1.30
2018-07-09T07:37:41.324Z,1.33
2018-07-09T07:40:10.464Z,1.00
2018-07-09T07:42:39.796Z,1.20
2018-07-09T07:45:09.171Z,1.70
2018-07-09T07:47:38.480Z,1.40
2018-07-09T07:50:07.856Z,1.27
2018-07-09T07:52:37.272Z,1.07
2018-07-09T07:55:06.613Z,1.20
2018-07-09T07:57:35.976Z,0.97
2018-07-09T08:00:05.906Z,0.77
2018-07-09T08:02:35.228Z,0.87
2018-07-09T08:05:04.548Z,0.60
2018-07-09T08:07:34.094Z,0.87
2018-07-09T08:10:03.460Z,0.67
2018-07-09T08:13:13.744Z,0.50
2018-07-09T08:15:02.425Z,0.70
2018-07-09T08:17:31.760Z,0.70
2018-07-09T08:20:01.086Z,0.80
2018-07-09T08:22:30.171Z,0.70
2018-07-09T08:24:59.445Z,0.60
2018-07-09T08:27:28.940Z,0.80
2018-07-09T08:29:58.233Z,0.80
2018-07-09T08:32:27.561Z,0.60
2018-07-09T08:34:56.895Z,0.77
2018-07-09T08:37:26.224Z,0.80
2018-07-09T08:39:55.624Z,0.70
2018-07-09T08:42:24.948Z,0.80
2018-07-09T08:44:54.365Z,1.03
2018-07-09T08:47:23.749Z,0.87
2018-07-09T08:49:53.059Z,0.70
2018-07-09T08:52:22.411Z,0.60
2018-07-09T08:54:51.743Z,1.00
2018-07-09T08:57:21.194Z,1.03
2018-07-09T08:59:50.680Z,0.73
2018-07-09T09:02:20.042Z,0.87
2018-07-09T09:04:49.388Z,0.90
2018-07-09T09:07:18.723Z,1.00
2018-07-09T09:09:48.114Z,0.83
2018-07-09T09:12:17.441Z,0.90
2018-07-09T09:14:46.816Z,0.90
2018-07-09T09:17:16.153Z,0.80
2018-07-09T09:19:45.455Z,1.07
2018-07-09T09:22:14.770Z,1.10
2018-07-09T09:24:44.159Z,0.70
2018-07-09T09:27:13.462Z,1.07
2018-07-09T09:29:42.879Z,0.73
2018-07-09T09:32:12.189Z,0.83
2018-07-09T09:34:41.503Z,1.00
2018-07-09T09:37:10.819Z,0.80
2018-07-09T09:39:40.164Z,0.80
2018-07-09T09:42:09.516Z,1.30
2018-07-09T09:44:38.866Z,0.80
2018-07-09T09:47:08.225Z,0.90
2018-07-09T09:49:37.705Z,0.60
2018-07-09T09:52:07.072Z,0.67
2018-07-09T09:54:36.433Z,1.00
2018-07-09T09:57:05.842Z,0.70
2018-07-09T09:59:35.191Z,0.90
2018-07-09T10:02:04.524Z,0.70
2018-07-09T10:04:34.084Z,0.87
2018-07-09T10:07:03.801Z,1.10
2018-07-09T10:09:33.128Z,0.77
2018-07-09T10:12:02.452Z,0.70
2018-07-09T10:14:31.859Z,0.62
2018-07-09T10:17:01.190Z,0.83
2018-07-09T10:19:30.284Z,0.80
2018-07-09T10:21:59.675Z,0.80
2018-07-09T10:24:28.985Z,0.93
2018-07-09T10:26:58.332Z,0.57
2018-07-09T10:29:27.652Z,0.70
2018-07-09T10:31:57.109Z,0.53
2018-07-09T10:34:26.437Z,0.67
2018-07-09T10:36:55.780Z,0.60
2018-07-09T10:39:25.137Z,0.80
2018-07-09T10:41:54.510Z,0.50
2018-07-09T10:44:24.016Z,0.33
2018-07-09T10:46:53.343Z,0.67
2018-07-09T10:49:22.660Z,0.60
2018-07-09T10:51:52.079Z,0.50
2018-07-09T10:54:21.410Z,0.50
2018-07-09T10:56:50.740Z,0.63
2018-07-09T10:59:20.061Z,0.30
2018-07-09T11:01:49.402Z,0.37
2018-07-09T11:04:18.703Z,0.50
2018-07-09T11:06:47.868Z,0.40
2018-07-09T11:09:17.230Z,0.60
2018-07-09T11:11:46.632Z,0.40
2018-07-09T11:14:15.957Z,0.50
2018-07-09T11:16:45.263Z,0.50
2018-07-09T11:19:14.612Z,0.60
2018-07-09T11:21:44.172Z,0.50
2018-07-09T11:24:13.424Z,0.50
2018-07-09T11:26:43.264Z,0.50
2018-07-09T11:29:12.612Z,0.40
2018-07-09T11:31:42.268Z,0.40
2018-07-09T11:34:11.584Z,0.60
2018-07-09T11:36:40.909Z,0.53
2018-07-09T11:39:10.287Z,0.40
2018-07-09T11:41:39.641Z,0.53
2018-07-09T11:44:09.061Z,0.40
2018-07-09T11:46:38.387Z,0.60
2018-07-09T11:49:07.742Z,0.70
2018-07-09T11:51:37.073Z,0.60
2018-07-09T11:54:06.572Z,0.50
2018-07-09T11:56:35.900Z,0.47
2018-07-09T11:59:05.360Z,0.37
2018-07-09T12:01:34.413Z,1.43
2018-07-09T12:04:03.750Z,0.40
2018-07-09T12:06:33.091Z,0.57
2018-07-09T12:09:02.441Z,0.43
2018-07-09T12:11:31.833Z,0.40
2018-07-09T12:14:01.080Z,0.77
2018-07-09T12:16:30.410Z,0.40
2018-07-09T12:18:59.724Z,0.40
2018-07-09T12:21:29.045Z,0.30
2018-07-09T12:23:58.368Z,0.33
2018-07-09T12:26:27.714Z,0.33
2018-07-09T12:28:57.079Z,0.40
2018-07-09T12:31:26.464Z,0.50
2018-07-09T12:33:55.960Z,0.50
2018-07-09T12:36:25.404Z,0.30
2018-07-09T12:38:54.707Z,0.50
2018-07-09T12:41:24.013Z,0.40
2018-07-09T12:43:53.441Z,0.50
2018-07-09T12:46:22.713Z,0.30
2018-07-09T12:48:52.017Z,0.40
2018-07-09T12:51:21.360Z,0.50
2018-07-09T12:53:50.689Z,0.50
2018-07-09T12:56:20.101Z,0.60
2018-07-09T12:58:49.420Z,0.30
2018-07-09T13:01:18.821Z,0.50
2018-07-09T13:03:48.140Z,0.50
2018-07-09T13:06:17.453Z,0.33
2018-07-09T13:08:46.816Z,0.80
2018-07-09T13:11:16.184Z,0.50
2018-07-09T13:13:45.605Z,0.43
2018-07-09T13:16:14.669Z,0.60
2018-07-09T13:18:44.052Z,0.40
2018-07-09T13:21:13.364Z,0.50
2018-07-09T13:23:42.711Z,0.50
2018-07-09T13:26:12.069Z,0.80
2018-07-09T13:28:41.706Z,0.40
2018-07-09T13:31:11.596Z,0.60
2018-07-09T13:33:40.960Z,0.53
2018-07-09T13:36:10.302Z,0.40
2018-07-09T13:38:40.228Z,0.70
2018-07-09T13:41:09.551Z,0.70
2018-07-09T13:43:38.892Z,0.60
2018-07-09T13:46:08.275Z,0.50
2018-07-09T13:48:37.678Z,0.70
2018-07-09T13:51:07.022Z,0.60
2018-07-09T13:53:36.339Z,0.70
2018-07-09T13:56:06.094Z,0.60
2018-07-09T13:58:35.655Z,0.83
2018-07-09T14:01:05.000Z,0.90
2018-07-09T14:03:34.345Z,0.70
2018-07-09T14:06:03.681Z,0.70
2018-07-09T14:08:33.023Z,1.00
2018-07-09T14:11:02.341Z,0.90
2018-07-09T14:13:31.667Z,1.00
2018-07-09T14:16:01.450Z,0.80
2018-07-09T14:18:30.804Z,1.00
2018-07-09T14:21:00.223Z,1.33
2018-07-09T14:23:29.519Z,0.85
2018-07-09T14:25:58.857Z,1.20
2018-07-09T14:28:28.222Z,0.67
2018-07-09T14:30:57.629Z,0.80
2018-07-09T14:33:27.032Z,1.20
2018-07-09T14:35:56.419Z,0.80
2018-07-09T14:38:25.890Z,1.43
2018-07-09T14:40:55.305Z,0.90
2018-07-09T14:43:24.617Z,1.27
2018-07-09T14:45:53.940Z,1.30
2018-07-09T14:48:23.264Z,1.23
2018-07-09T14:50:52.616Z,1.10
2018-07-09T14:53:21.975Z,1.20
2018-07-09T14:55:51.324Z,0.80
2018-07-09T14:58:20.628Z,1.20
2018-07-09T15:00:49.994Z,2.50
2018-07-09T15:03:19.292Z,1.00
2018-07-09T15:05:48.624Z,0.83
2018-07-09T15:08:17.934Z,0.90
2018-07-09T15:10:47.631Z,1.00
2018-07-09T15:13:17.013Z,0.93
2018-07-09T15:15:46.560Z,0.93
2018-07-09T15:18:15.851Z,0.93
2018-07-09T15:20:45.180Z,1.13
2018-07-09T15:23:14.527Z,0.60
2018-07-09T15:25:43.876Z,1.07
2018-07-09T15:28:13.179Z,1.20
2018-07-09T15:30:43.588Z,0.83
2018-07-09T15:33:13.001Z,0.90
2018-07-09T15:35:42.356Z,0.80
2018-07-09T15:38:11.672Z,0.73
2018-07-09T15:40:40.755Z,0.80
2018-07-09T15:43:10.069Z,1.17
2018-07-09T15:45:39.377Z,0.80
2018-07-09T15:48:08.763Z,0.80
2018-07-09T15:50:38.076Z,0.80
2018-07-09T15:53:08.363Z,0.70
2018-07-09T15:55:37.735Z,0.60
2018-07-09T15:58:07.083Z,0.70
2018-07-09T16:00:36.432Z,0.70
2018-07-09T16:03:05.797Z,0.67
2018-07-09T16:05:35.198Z,0.50
2018-07-09T16:08:04.601Z,0.70
2018-07-09T16:10:33.922Z,0.40
2018-07-09T16:13:03.040Z,0.50
2018-07-09T16:15:32.610Z,0.80
2018-07-09T16:18:02.152Z,0.80
2018-07-09T16:20:31.500Z,0.70
2018-07-09T16:23:00.857Z,0.97
2018-07-09T16:25:30.218Z,0.57
2018-07-09T16:27:59.644Z,0.67
2018-07-09T16:30:29.019Z,0.73
2018-07-09T16:32:58.342Z,0.80
2018-07-09T16:35:27.872Z,0.60
2018-07-09T16:37:57.214Z,0.97
2018-07-09T16:40:26.536Z,0.60
2018-07-09T16:42:55.867Z,0.90
2018-07-09T16:45:25.336Z,0.80
2018-07-09T16:47:54.636Z,1.00
2018-07-09T16:50:23.988Z,1.00
2018-07-09T16:52:53.369Z,1.00
2018-07-09T16:55:22.743Z,0.90
2018-07-09T16:57:52.071Z,1.20
2018-07-09T17:00:21.672Z,1.10
2018-07-09T17:02:51.326Z,1.10
2018-07-09T17:05:20.963Z,1.10
2018-07-09T17:07:50.597Z,0.80
2018-07-09T17:10:20.214Z,0.60
2018-07-09T17:12:49.850Z,1.00
2018-07-09T17:15:19.517Z,1.00
2018-07-09T17:17:49.262Z,1.10
2018-07-09T17:20:18.967Z,0.73
2018-07-09T17:22:48.577Z,1.00
2018-07-09T17:25:18.350Z,0.87
2018-07-09T17:27:48.039Z,1.40
2018-07-09T17:30:17.672Z,0.87
2018-07-09T17:32:47.312Z,0.80
2018-07-09T17:35:18.214Z,1.17
2018-07-09T17:37:48.039Z,1.10
2018-07-09T17:40:17.596Z,1.10
2018-07-09T17:42:47.032Z,0.97
2018-07-09T17:45:16.476Z,1.30
2018-07-09T17:47:45.832Z,0.90
2018-07-09T17:50:15.256Z,1.10
2018-07-09T17:52:44.553Z,0.93
2018-07-09T17:55:13.943Z,0.77
2018-07-09T17:57:43.276Z,0.87
2018-07-09T18:00:12.667Z,1.67
2018-07-09T18:02:42.080Z,1.10
2018-07-09T18:05:11.426Z,1.17
2018-07-09T18:07:40.829Z,1.17
2018-07-09T18:10:10.274Z,1.40
2018-07-09T18:12:39.652Z,0.80
2018-07-09T18:15:09.125Z,1.27
2018-07-09T18:17:38.479Z,1.00
2018-07-09T18:20:07.810Z,1.10
2018-07-09T18:22:37.152Z,1.00
2018-07-09T18:25:07.842Z,1.15
2018-07-09T18:27:37.539Z,1.20
2018-07-09T18:30:07.056Z,1.37
2018-07-09T18:32:36.394Z,0.90
2018-07-09T18:35:05.764Z,1.25
2018-07-09T18:37:35.108Z,1.00
2018-07-09T18:40:04.556Z,1.30
2018-07-09T18:42:33.880Z,1.00
2018-07-09T18:45:03.270Z,1.50
2018-07-09T18:47:32.724Z,1.00
2018-07-09T18:50:02.064Z,0.93
2018-07-09T18:52:31.560Z,1.07
2018-07-09T18:55:00.955Z,1.17
2018-07-09T18:57:30.332Z,0.93
2018-07-09T18:59:59.631Z,1.17
2018-07-09T19:02:28.975Z,1.60
2018-07-09T19:04:58.290Z,1.47
2018-07-09T19:07:31.174Z,1.23
2018-07-09T19:10:00.528Z,1.40
2018-07-09T19:12:37.677Z,1.13
2018-07-09T19:15:08.874Z,1.30
2018-07-09T19:18:05.476Z,1.50
2018-07-09T19:21:22.107Z,1.10
2018-07-09T19:23:49.871Z,1.50
2018-07-09T19:26:17.576Z,1.40
2018-07-09T19:28:45.284Z,1.30
2018-07-09T19:31:13.022Z,1.10
2018-07-09T19:33:41.166Z,1.20
2018-07-09T19:36:09.307Z,1.70
2018-07-09T19:38:37.930Z,1.13
2018-07-09T19:41:06.050Z,1.20
2018-07-09T19:43:33.878Z,1.43
2018-07-09T19:46:01.668Z,1.07
2018-07-09T19:48:29.342Z,1.30
2018-07-09T19:50:57.067Z,1.40
2018-07-09T19:53:24.763Z,1.40
2018-07-09T19:55:52.529Z,1.37
2018-07-09T19:58:20.249Z,1.30
2018-07-09T20:00:48.089Z,1.30
2018-07-09T20:03:15.804Z,1.20
2018-07-09T20:05:43.533Z,1.23
2018-07-09T20:08:11.249Z,0.90
2018-07-09T20:10:44.092Z,1.53
2018-07-09T20:13:17.235Z,1.40
2018-07-09T20:15:50.169Z,1.40
2018-07-09T20:18:18.171Z,1.23
2018-07-09T20:20:45.924Z,1.20
2018-07-09T20:23:13.624Z,1.10
2018-07-09T20:25:41.365Z,1.33
2018-07-09T20:28:09.081Z,1.37
2018-07-09T20:30:36.832Z,1.37
2018-07-09T20:33:04.545Z,1.47
2018-07-09T20:35:32.279Z,1.00
2018-07-09T20:37:59.983Z,1.33
2018-07-09T20:40:27.708Z,1.23
2018-07-09T20:42:55.437Z,1.47
2018-07-09T20:45:23.171Z,1.27
2018-07-09T20:47:50.904Z,1.63
2018-07-09T20:50:18.620Z,1.60
2018-07-09T20:52:46.333Z,1.70
2018-07-09T20:55:14.098Z,1.83
2018-07-09T20:57:41.832Z,1.37
2018-07-09T21:00:09.579Z,1.63
2018-07-09T21:02:37.299Z,1.83
2018-07-09T21:05:05.053Z,2.00
2018-07-09T21:07:32.819Z,1.30
2018-07-09T21:10:00.520Z,1.30
2018-07-09T21:12:28.236Z,1.40
2018-07-09T21:14:56.003Z,1.70
2018-07-09T21:17:23.696Z,1.30
2018-07-09T21:19:51.412Z,1.60
2018-07-09T21:22:19.123Z,1.23
2018-07-09T21:24:47.689Z,1.70
2018-07-09T21:27:15.396Z,1.70
2018-07-09T21:29:43.100Z,2.00
2018-07-09T21:32:10.821Z,1.70
2018-07-09T21:34:38.534Z,2.10
2018-07-09T21:37:06.252Z,1.50
2018-07-09T21:39:33.960Z,2.10
2018-07-09T21:42:01.681Z,1.67
2018-07-09T21:44:29.405Z,1.90
2018-07-09T21:46:57.126Z,1.77
2018-07-09T21:49:24.853Z,1.50
2018-07-09T21:51:52.731Z,2.20
2018-07-09T21:54:20.433Z,1.93
2018-07-09T21:56:48.171Z,1.70
2018-07-09T21:59:15.881Z,2.30
2018-07-09T22:01:43.596Z,2.10
2018-07-09T22:04:11.308Z,1.87
2018-07-09T22:06:39.041Z,2.20
2018-07-09T22:09:07.029Z,1.98
2018-07-09T22:11:35.308Z,2.20
2018-07-09T22:14:03.076Z,2.50
2018-07-09T22:16:30.768Z,2.40
2018-07-09T22:18:58.479Z,2.27
2018-07-09T22:21:26.200Z,2.43
2018-07-09T22:23:53.928Z,2.00
2018-07-09T22:26:21.641Z,2.70
2018-07-09T22:28:49.537Z,2.67
2018-07-09T22:31:18.864Z,2.10
2018-07-09T22:33:48.193Z,2.53
2018-07-09T22:36:17.560Z,2.80
2018-07-09T22:38:46.888Z,2.50
2018-07-09T22:41:16.198Z,2.90
2018-07-09T22:44:02.615Z,2.77
2018-07-09T22:46:31.707Z,2.70
2018-07-09T22:49:01.556Z,2.42
2018-07-09T22:51:30.878Z,2.43
2018-07-09T22:54:00.212Z,2.90
2018-07-09T22:56:29.595Z,2.60
2018-07-09T22:58:58.916Z,2.33
2018-07-09T23:01:28.239Z,2.93
2018-07-09T23:03:57.570Z,2.30
2018-07-09T23:06:26.891Z,2.40
2018-07-09T23:10:10.696Z,2.47
2018-07-09T23:16:42.392Z,2.20
2018-07-09T23:20:30.290Z,2.90
2018-07-09T23:22:58.078Z,2.73
2018-07-09T23:25:25.792Z,2.87
2018-07-09T23:27:53.523Z,2.40
2018-07-09T23:30:21.247Z,2.70
2018-07-09T23:32:48.963Z,2.73
2018-07-09T23:35:16.704Z,3.00
2018-07-09T23:37:44.417Z,2.90
2018-07-09T23:40:12.156Z,2.67
2018-07-09T23:42:39.893Z,2.20
2018-07-09T23:45:07.608Z,2.30
2018-07-09T23:47:35.396Z,2.37
2018-07-09T23:50:03.116Z,2.20
2018-07-09T23:55:40.723Z,1.80
2018-07-09T23:59:29.989Z,2.40
